Time;durP1;ratioP1;P1;durP2;ratioP2;P2;SDS_P1;SDS_P2;PMS_P1;PMS_P2;Temp;Humidity;BMP_temperature;BMP_pressure;BME280_temperature;BME280_humidity;BME280_pressure;Samples;Min_cycle;Max_cycle;Signal;HPM_P1;HPM_P2
2023/06/01 00:02:06;;;;;;;6.90;3.35;;;17.20;99.90;;;;;;5111691;28;20180;-50
2023/06/01 00:04:31;;;;;;;5.55;3.22;;;17.40;99.90;;;;;;5111374;28;20539;-49
2023/06/01 00:06:59;;;;;;;11.63;3.10;;;17.00;99.90;;;;;;5111471;28;20220;-49
2023/06/01 00:09:25;;;;;;;8.45;3.22;;;17.30;99.90;;;;;;5112174;28;20208;-50
2023/06/01 00:11:51;;;;;;;6.93;3.17;;;17.30;99.90;;;;;;5111528;28;20218;-51
2023/06/01 00:14:16;;;;;;;5.53;3.22;;;17.10;99.90;;;;;;5111530;28;20175;-49
2023/06/01 00:16:42;;;;;;;4.75;3.17;;;17.00;99.90;;;;;;5111627;28;20159;-50
2023/06/01 00:19:08;;;;;;;7.93;3.78;;;16.90;99.90;;;;;;5111462;28;20164;-51
2023/06/01 00:21:35;;;;;;;6.32;2.90;;;16.90;99.90;;;;;;5111784;28;20212;-51
2023/06/01 00:24:01;;;;;;;6.57;2.85;;;17.00;99.90;;;;;;5093185;28;20168;-51
2023/06/01 00:26:27;;;;;;;4.22;2.80;;;;;;;;;;5111427;28;20695;-49
2023/06/01 00:28:52;;;;;;;4.80;2.97;;;16.80;99.90;;;;;;5111726;28;20279;-51
2023/06/01 00:31:18;;;;;;;6.40;3.03;;;;;;;;;;5093179;28;20259;-50
2023/06/01 00:33:44;;;;;;;4.07;2.80;;;16.70;99.90;;;;;;5111442;28;20169;-50
2023/06/01 00:36:09;;;;;;;5.13;3.13;;;16.70;99.90;;;;;;5093104;28;20172;-51
2023/06/01 00:38:35;;;;;;;8.27;2.90;;;16.60;99.90;;;;;;5111319;28;20173;-51
2023/06/01 00:41:00;;;;;;;4.15;2.53;;;16.80;99.90;;;;;;5111411;28;20222;-51
2023/06/01 00:43:26;;;;;;;5.80;2.88;;;;;;;;;;5111628;28;20222;-49
2023/06/01 00:45:53;;;;;;;6.70;3.13;;;16.50;99.90;;;;;;5114782;28;20649;-49
2023/06/01 00:48:20;;;;;;;5.13;3.28;;;;;;;;;;5114866;28;20161;-48
2023/06/01 00:50:46;;;;;;;5.68;3.35;;;16.70;99.90;;;;;;5115062;28;20726;-49
2023/06/01 00:53:17;;;;;;;4.20;2.55;;;16.70;99.90;;;;;;5114686;28;20171;-48
2023/06/01 00:55:44;;;;;;;4.72;2.90;;;16.70;99.90;;;;;;5114624;28;20587;-49
2023/06/01 00:58:09;;;;;;;5.80;3.08;;;16.50;99.90;;;;;;5114676;28;20251;-49
2023/06/01 01:00:37;;;;;;;5.65;2.85;;;16.70;99.90;;;;;;5114727;28;20235;-49
2023/06/01 01:03:07;;;;;;;4.13;3.03;;;16.60;99.90;;;;;;5096294;28;20180;-51
2023/06/01 01:05:33;;;;;;;7.72;3.30;;;16.60;99.90;;;;;;5114858;28;20160;-49
2023/06/01 01:08:17;;;;;;;4.88;3.22;;;16.60;99.90;;;;;;5114411;28;20227;-48
2023/06/01 01:11:01;;;;;;;4.55;2.83;;;16.30;99.90;;;;;;5114319;28;20204;-49
2023/06/01 01:13:30;;;;;;;6.40;2.92;;;16.50;99.90;;;;;;5114552;28;20192;-49
2023/06/01 01:16:30;;;;;;;5.15;3.08;;;16.50;99.90;;;;;;5114565;28;20168;-49
2023/06/01 01:19:06;;;;;;;5.40;2.92;;;16.50;99.90;;;;;;5114974;28;20229;-49
2023/06/01 01:21:37;;;;;;;5.80;3.00;;;16.50;99.90;;;;;;5096737;28;20165;-48
2023/06/01 01:24:14;;;;;;;4.32;3.45;;;16.50;99.90;;;;;;5114406;28;20181;-48
2023/06/01 01:27:15;;;;;;;5.03;3.42;;;16.40;99.90;;;;;;5114230;28;20617;-49
2023/06/01 01:29:42;;;;;;;5.68;3.17;;;16.00;99.90;;;;;;5058041;28;20212;-48
2023/06/01 01:32:09;;;;;;;7.10;3.42;;;16.40;99.90;;;;;;5114074;28;20164;-49
2023/06/01 01:34:35;;;;;;;6.50;3.58;;;16.20;99.90;;;;;;5114142;28;20624;-48
2023/06/01 01:37:01;;;;;;;4.32;3.33;;;16.10;99.90;;;;;;5114281;28;20522;-48
2023/06/01 01:39:27;;;;;;;9.10;3.53;;;15.90;99.90;;;;;;5113981;28;20201;-48
2023/06/01 01:41:52;;;;;;;6.63;3.30;;;15.80;99.90;;;;;;5114339;28;20598;-49
2023/06/01 01:44:19;;;;;;;5.72;3.42;;;16.00;99.90;;;;;;5114226;28;20168;-49
2023/06/01 01:47:14;;;;;;;4.25;3.13;;;15.90;99.90;;;;;;5114181;28;20226;-49
2023/06/01 01:49:43;;;;;;;4.88;3.30;;;15.90;99.90;;;;;;5113992;28;20261;-48
2023/06/01 01:52:12;;;;;;;8.27;3.50;;;;;;;;;;5113708;28;20160;-48
2023/06/01 01:54:42;;;;;;;8.50;4.28;;;15.70;99.90;;;;;;5095205;28;20173;-48
2023/06/01 01:57:08;;;;;;;6.32;3.47;;;15.50;99.90;;;;;;5113468;28;20194;-48
2023/06/01 01:59:35;;;;;;;5.88;3.78;;;15.60;99.90;;;;;;5113590;28;20175;-48
2023/06/01 02:02:02;;;;;;;7.22;3.95;;;15.60;99.90;;;;;;5113547;28;20172;-48
2023/06/01 02:04:28;;;;;;;8.85;4.32;;;15.60;99.90;;;;;;5113320;28;20641;-49
2023/06/01 02:06:54;;;;;;;7.28;4.05;;;15.70;99.90;;;;;;5113631;28;20212;-48
2023/06/01 02:09:19;;;;;;;13.43;4.78;;;15.40;99.90;;;;;;5113502;28;20219;-48
2023/06/01 02:11:45;;;;;;;6.82;4.00;;;15.50;99.90;;;;;;5113246;28;20192;-48
2023/06/01 02:14:10;;;;;;;9.95;4.47;;;15.70;99.90;;;;;;5113298;28;20157;-49
2023/06/01 02:16:36;;;;;;;8.52;4.25;;;15.70;99.90;;;;;;5113233;28;20172;-48
2023/06/01 02:19:02;;;;;;;9.98;4.57;;;15.60;99.90;;;;;;5113074;28;20165;-49
2023/06/01 02:21:28;;;;;;;8.70;5.03;;;15.70;99.90;;;;;;5113135;28;20169;-48
2023/06/01 02:23:54;;;;;;;10.88;4.57;;;15.20;99.90;;;;;;5113403;28;20196;-49
2023/06/01 02:26:19;;;;;;;5.32;3.90;;;15.50;99.90;;;;;;5112954;28;20243;-48
2023/06/01 02:28:45;;;;;;;6.22;3.97;;;15.50;99.90;;;;;;5113075;28;20176;-48
2023/06/01 02:31:11;;;;;;;11.63;4.35;;;;;;;;;;5112871;28;20186;-48
2023/06/01 02:33:38;;;;;;;10.32;5.20;;;15.50;99.90;;;;;;5112711;28;20168;-48
2023/06/01 02:36:03;;;;;;;6.78;4.85;;;15.40;99.90;;;;;;5112865;28;20165;-49
2023/06/01 02:38:29;;;;;;;9.77;5.20;;;;;;;;;;5112764;28;20222;-49
2023/06/01 02:40:55;;;;;;;11.98;5.00;;;;;;;;;;5112990;28;20200;-50
2023/06/01 02:43:21;;;;;;;8.93;5.30;;;15.20;99.90;;;;;;5113079;28;20171;-49
2023/06/01 02:45:46;;;;;;;12.40;4.80;;;15.30;99.90;;;;;;5112747;28;20172;-48
2023/06/01 02:48:12;;;;;;;10.68;5.10;;;15.00;99.90;;;;;;5112528;28;20172;-48
2023/06/01 02:50:38;;;;;;;9.13;5.13;;;15.10;99.90;;;;;;5112656;28;20216;-51
2023/06/01 02:53:04;;;;;;;8.07;4.97;;;15.10;99.90;;;;;;5112555;28;20165;-51
2023/06/01 02:55:30;;;;;;;9.02;5.82;;;14.90;99.90;;;;;;5112830;28;20177;-51
2023/06/01 02:57:56;;;;;;;12.68;6.32;;;14.90;99.90;;;;;;5094369;28;20171;-50
2023/06/01 03:00:22;;;;;;;8.23;5.85;;;14.60;99.90;;;;;;5113056;28;20172;-49
2023/06/01 03:02:48;;;;;;;8.20;6.18;;;14.70;99.90;;;;;;5112745;28;20169;-50
2023/06/01 03:05:16;;;;;;;18.08;7.28;;;14.80;99.90;;;;;;5112282;28;20173;-51
2023/06/01 03:07:44;;;;;;;13.27;6.53;;;14.70;99.90;;;;;;5111398;28;20223;-51
2023/06/01 03:10:10;;;;;;;10.52;6.45;;;14.70;99.90;;;;;;5112324;28;20204;-50
2023/06/01 03:12:36;;;;;;;12.82;6.75;;;14.80;99.90;;;;;;5094457;28;20173;-49
2023/06/01 03:15:01;;;;;;;6.85;5.97;;;14.60;99.90;;;;;;5093952;28;20236;-51
2023/06/01 03:17:27;;;;;;;17.77;8.05;;;14.70;99.90;;;;;;5112000;28;20172;-51
2023/06/01 03:19:52;;;;;;;12.18;7.65;;;14.70;99.90;;;;;;5112576;28;20255;-50
2023/06/01 03:22:18;;;;;;;14.95;8.13;;;14.20;99.90;;;;;;5112066;28;20639;-50
2023/06/01 03:24:44;;;;;;;15.05;7.88;;;14.50;99.90;;;;;;5111954;28;20632;-50
2023/06/01 03:27:11;;;;;;;11.35;8.13;;;14.40;99.90;;;;;;5111867;28;20290;-51
2023/06/01 03:29:36;;;;;;;14.55;8.48;;;14.40;99.90;;;;;;5111828;28;20730;-50
2023/06/01 03:32:02;;;;;;;13.30;8.07;;;14.80;99.90;;;;;;5111855;28;20245;-49
2023/06/01 03:34:28;;;;;;;14.90;8.45;;;14.80;99.90;;;;;;5111944;28;20167;-49
2023/06/01 03:36:54;;;;;;;18.10;8.82;;;14.70;99.90;;;;;;5112586;28;20168;-48
2023/06/01 03:39:19;;;;;;;14.90;9.27;;;14.70;99.90;;;;;;5111846;28;20209;-48
2023/06/01 03:41:45;;;;;;;19.42;9.10;;;;;;;;;;5111430;28;20172;-49
2023/06/01 03:44:11;;;;;;;17.92;9.52;;;14.70;99.90;;;;;;5111771;28;20636;-48
2023/06/01 03:46:38;;;;;;;20.42;10.40;;;;;;;;;;5111881;28;20673;-48
2023/06/01 03:49:04;;;;;;;14.85;9.60;;;14.70;99.90;;;;;;5111720;28;20188;-48
2023/06/01 03:51:30;;;;;;;13.95;9.55;;;14.40;99.90;;;;;;5112059;28;20164;-50
2023/06/01 03:53:56;;;;;;;20.20;9.32;;;;;;;;;;5111735;28;20836;-49
2023/06/01 03:56:22;;;;;;;18.83;9.93;;;14.20;99.90;;;;;;5112139;28;20173;-48
2023/06/01 03:58:48;;;;;;;18.33;9.57;;;14.50;99.90;;;;;;5111793;28;20681;-48
2023/06/01 04:01:16;;;;;;;15.88;9.73;;;14.40;99.90;;;;;;5111791;28;20530;-48
2023/06/01 04:03:43;;;;;;;19.88;10.18;;;14.80;99.90;;;;;;5111662;28;20164;-48
2023/06/01 04:06:12;;;;;;;17.63;10.25;;;14.30;99.90;;;;;;5111454;28;20663;-48
2023/06/01 04:08:47;;;;;;;15.05;9.00;;;14.10;99.90;;;;;;5111822;28;20210;-49
2023/06/01 04:11:13;;;;;;;15.93;9.25;;;14.40;99.90;;;;;;5111583;28;20571;-49
2023/06/01 04:13:39;;;;;;;19.85;10.25;;;14.40;99.90;;;;;;5111595;28;20160;-49
2023/06/01 04:16:05;;;;;;;21.08;10.93;;;14.80;99.90;;;;;;5111635;28;20195;-48
2023/06/01 04:18:30;;;;;;;17.05;10.30;;;14.40;99.90;;;;;;5112770;28;20196;-49
2023/06/01 04:20:56;;;;;;;20.88;9.95;;;;;;;;;;5115537;28;20192;-49
2023/06/01 04:23:22;;;;;;;18.98;10.20;;;14.40;99.90;;;;;;5097550;28;20172;-49
2023/06/01 04:25:51;;;;;;;20.35;10.30;;;14.20;99.90;;;;;;5115357;28;20157;-49
2023/06/01 04:28:17;;;;;;;22.25;10.43;;;14.30;99.90;;;;;;5115585;28;20505;-50
2023/06/01 04:30:47;;;;;;;15.32;10.23;;;;;;;;;;5115482;28;20204;-49
2023/06/01 04:33:13;;;;;;;15.25;10.25;;;14.60;99.90;;;;;;5115342;28;20172;-48
2023/06/01 04:35:39;;;;;;;21.63;11.02;;;;;;;;;;5115153;28;20168;-48
2023/06/01 04:38:05;;;;;;;16.23;10.80;;;14.90;99.90;;;;;;5115148;28;20249;-49
2023/06/01 04:40:31;;;;;;;17.92;9.75;;;14.90;99.90;;;;;;5115054;28;20639;-48
2023/06/01 04:42:57;;;;;;;14.38;9.82;;;;;;;;;;5115188;28;20685;-48
2023/06/01 04:45:25;;;;;;;17.65;9.63;;;15.10;99.90;;;;;;5115542;28;20175;-49
2023/06/01 04:47:51;;;;;;;15.23;10.45;;;15.10;99.90;;;;;;5115391;28;20565;-48
2023/06/01 04:50:17;;;;;;;21.25;11.05;;;;;;;;;;5114966;28;20294;-49
2023/06/01 04:52:44;;;;;;;14.70;10.50;;;15.40;99.90;;;;;;5114653;28;20200;-48
2023/06/01 04:55:11;;;;;;;19.05;11.13;;;15.20;99.90;;;;;;5114780;28;20161;-49
2023/06/01 04:57:38;;;;;;;18.58;11.93;;;15.00;99.90;;;;;;5114926;28;20229;-48
2023/06/01 05:00:10;;;;;;;20.50;13.23;;;15.30;99.90;;;;;;5114809;28;20183;-49
2023/06/01 05:02:37;;;;;;;19.20;14.07;;;15.40;99.90;;;;;;5114470;28;20689;-48
2023/06/01 05:05:04;;;;;;;21.20;14.38;;;15.50;99.90;;;;;;5114852;28;20173;-49
2023/06/01 05:07:30;;;;;;;24.67;15.93;;;;;;;;;;5114411;28;20713;-48
2023/06/01 05:09:56;;;;;;;24.08;16.73;;;15.40;99.90;;;;;;5114333;28;20295;-48
2023/06/01 05:12:21;;;;;;;24.58;16.77;;;15.60;99.90;;;;;;5114871;28;20239;-49
2023/06/01 05:14:47;;;;;;;29.85;17.60;;;15.30;99.90;;;;;;5114583;28;20172;-50
2023/06/01 05:17:13;;;;;;;25.08;18.83;;;15.10;99.90;;;;;;5096020;28;20572;-48
2023/06/01 05:19:39;;;;;;;28.45;19.83;;;15.20;99.90;;;;;;5114385;28;20175;-48
2023/06/01 05:22:04;;;;;;;27.23;19.10;;;14.80;99.90;;;;;;5114394;28;20204;-50
2023/06/01 05:24:33;;;;;;;31.27;21.20;;;15.50;99.90;;;;;;5114225;28;20241;-49
2023/06/01 05:26:58;;;;;;;30.77;20.95;;;14.80;99.90;;;;;;5114114;28;20236;-49
2023/06/01 05:29:24;;;;;;;31.70;21.45;;;;;;;;;;5114215;28;20338;-52
2023/06/01 05:31:50;;;;;;;30.90;20.55;;;15.50;99.90;;;;;;5095784;28;20177;-49
2023/06/01 05:34:16;;;;;;;39.03;24.00;;;15.40;99.90;;;;;;5114104;28;20662;-51
2023/06/01 05:36:41;;;;;;;36.50;26.05;;;15.20;99.90;;;;;;5114228;28;20175;-51
2023/06/01 05:39:07;;;;;;;41.55;25.48;;;15.20;99.90;;;;;;5113958;28;20173;-52
2023/06/01 05:41:33;;;;;;;50.60;28.30;;;14.80;99.90;;;;;;5114018;28;20263;-50
2023/06/01 05:43:58;;;;;;;47.58;29.60;;;;;;;;;;5113988;28;20259;-52
2023/06/01 05:46:25;;;;;;;55.28;29.55;;;;;;;;;;5114265;28;20523;-51
2023/06/01 05:48:51;;;;;;;53.03;31.50;;;15.20;99.90;;;;;;5114105;28;20224;-51
2023/06/01 05:51:17;;;;;;;49.25;29.88;;;14.80;99.90;;;;;;5113852;28;20212;-51
2023/06/01 05:53:42;;;;;;;51.90;31.00;;;15.10;99.90;;;;;;5113572;28;20243;-48
2023/06/01 05:56:08;;;;;;;48.38;32.55;;;15.10;99.90;;;;;;5095266;28;20222;-48
2023/06/01 05:58:34;;;;;;;51.35;32.50;;;15.30;99.90;;;;;;5113561;28;20168;-48
2023/06/01 06:00:59;;;;;;;49.67;32.08;;;15.40;99.90;;;;;;5113437;28;20177;-48
2023/06/01 06:03:25;;;;;;;49.00;32.78;;;15.50;99.90;;;;;;5113423;28;20176;-48
2023/06/01 06:05:50;;;;;;;51.28;32.47;;;15.30;99.90;;;;;;5114162;28;20526;-50
2023/06/01 06:08:16;;;;;;;57.00;32.17;;;15.40;99.90;;;;;;5113195;28;20219;-49
2023/06/01 06:10:41;;;;;;;54.85;33.65;;;15.40;99.90;;;;;;5113138;28;20215;-48
2023/06/01 06:13:07;;;;;;;57.35;35.15;;;15.50;99.90;;;;;;5113358;28;20161;-48
2023/06/01 06:15:33;;;;;;;55.83;34.90;;;15.50;99.90;;;;;;5113449;28;20522;-48
2023/06/01 06:17:58;;;;;;;51.10;32.80;;;15.20;99.90;;;;;;5113250;28;20175;-47
2023/06/01 06:20:24;;;;;;;50.38;33.45;;;;;;;;;;5113813;28;20169;-48
2023/06/01 06:22:51;;;;;;;55.33;34.45;;;15.40;99.90;;;;;;5113448;28;20165;-48
2023/06/01 06:25:17;;;;;;;51.78;34.58;;;15.30;99.90;;;;;;5112990;28;20192;-48
2023/06/01 06:27:42;;;;;;;41.42;29.35;;;15.40;99.90;;;;;;5112839;28;20157;-48
2023/06/01 06:30:09;;;;;;;49.20;31.60;;;15.10;99.90;;;;;;5113117;28;20253;-49
2023/06/01 06:32:35;;;;;;;58.67;34.95;;;15.00;99.90;;;;;;5112975;28;20168;-48
2023/06/01 06:35:01;;;;;;;59.03;35.05;;;;;;;;;;5112892;28;20172;-48
2023/06/01 06:37:29;;;;;;;65.75;37.60;;;15.30;99.90;;;;;;5112821;28;20165;-48
2023/06/01 06:39:54;;;;;;;56.05;36.25;;;15.20;99.90;;;;;;5112928;28;20527;-47
2023/06/01 06:42:20;;;;;;;58.42;38.03;;;15.20;99.90;;;;;;5113068;28;20172;-48
2023/06/01 06:44:46;;;;;;;59.92;37.05;;;;;;;;;;5112742;28;20169;-48
2023/06/01 06:47:15;;;;;;;54.55;36.83;;;15.20;99.90;;;;;;5112621;28;20267;-48
2023/06/01 06:49:40;;;;;;;58.17;37.10;;;15.30;99.90;;;;;;5112750;28;20205;-48
2023/06/01 06:52:06;;;;;;;61.60;37.58;;;;;;;;;;5112497;28;20175;-48
2023/06/01 06:54:32;;;;;;;55.17;37.50;;;15.30;99.90;;;;;;5112787;28;20266;-48
2023/06/01 06:56:57;;;;;;;58.10;39.85;;;15.20;99.90;;;;;;5112575;28;20179;-48
2023/06/01 06:59:23;;;;;;;52.88;34.42;;;15.40;99.90;;;;;;5112889;28;20168;-48
2023/06/01 07:01:49;;;;;;;55.08;34.88;;;15.40;99.90;;;;;;5094179;28;20173;-47
2023/06/01 07:04:14;;;;;;;62.50;37.38;;;15.70;99.90;;;;;;5112706;28;20183;-48
2023/06/01 07:06:40;;;;;;;58.00;37.88;;;15.50;99.90;;;;;;5112138;28;20756;-49
2023/06/01 07:09:05;;;;;;;60.08;37.05;;;15.30;99.90;;;;;;5112454;28;20222;-48
2023/06/01 07:11:32;;;;;;;63.85;38.80;;;15.50;99.90;;;;;;5112456;28;20303;-48
2023/06/01 07:13:58;;;;;;;55.95;35.20;;;15.60;99.90;;;;;;5112285;28;20659;-47
2023/06/01 07:16:25;;;;;;;57.53;39.03;;;;;;;;;;5112614;28;20165;-48
2023/06/01 07:18:51;;;;;;;58.70;39.42;;;15.70;99.90;;;;;;5112770;28;20198;-49
2023/06/01 07:21:17;;;;;;;55.42;39.72;;;16.00;99.90;;;;;;5112333;28;20175;-48
2023/06/01 07:23:45;;;;;;;57.83;38.47;;;15.90;99.90;;;;;;5111956;28;20247;-48
2023/06/01 07:26:11;;;;;;;55.50;39.30;;;16.10;99.90;;;;;;5111998;28;20720;-48
2023/06/01 07:28:37;;;;;;;55.53;38.42;;;;;;;;;;5093695;28;20259;-47
2023/06/01 07:31:03;;;;;;;58.50;40.13;;;16.20;99.90;;;;;;5111830;28;20199;-48
2023/06/01 07:33:29;;;;;;;55.15;36.63;;;16.00;99.90;;;;;;5111909;28;20255;-49
2023/06/01 07:35:57;;;;;;;61.05;40.90;;;16.00;99.90;;;;;;5093600;28;20595;-48
2023/06/01 07:38:23;;;;;;;55.80;40.33;;;16.30;99.90;;;;;;5112652;28;20247;-50
2023/06/01 07:40:50;;;;;;;60.88;39.53;;;;;;;;;;5112266;28;20609;-50
2023/06/01 07:43:16;;;;;;;55.15;39.38;;;16.40;99.90;;;;;;5112096;28;20271;-50
2023/06/01 07:45:42;;;;;;;53.97;38.35;;;;;;;;;;5111771;28;20211;-50
2023/06/01 07:48:08;;;;;;;47.53;33.28;;;;;;;;;;5112289;28;20169;-52
2023/06/01 07:50:34;;;;;;;56.25;35.72;;;16.80;99.90;;;;;;5111721;28;20196;-50
2023/06/01 07:53:00;;;;;;;47.40;33.85;;;17.00;99.90;;;;;;5112317;28;20164;-50
2023/06/01 07:55:25;;;;;;;42.53;33.85;;;17.10;99.90;;;;;;5115987;28;20536;-49
2023/06/01 07:57:52;;;;;;;38.85;29.52;;;16.90;99.90;;;;;;5098126;28;20650;-50
2023/06/01 08:00:18;;;;;;;50.22;32.70;;;16.80;99.90;;;;;;5115795;28;20214;-50
2023/06/01 08:02:44;;;;;;;48.28;34.08;;;16.90;99.90;;;;;;5115765;28;20203;-50
2023/06/01 08:05:11;;;;;;;42.33;32.65;;;16.90;99.90;;;;;;5115804;28;20165;-48
2023/06/01 08:07:37;;;;;;;45.92;34.17;;;17.10;99.90;;;;;;5115587;28;20224;-48
2023/06/01 08:10:05;;;;;;;47.85;33.60;;;16.60;99.90;;;;;;5115592;28;20236;-49
2023/06/01 08:12:31;;;;;;;41.17;32.38;;;16.90;99.90;;;;;;5115850;28;20165;-48
2023/06/01 08:14:58;;;;;;;42.17;31.73;;;17.40;99.90;;;;;;5115842;28;20173;-49
2023/06/01 08:17:24;;;;;;;42.97;32.17;;;;;;;;;;5115772;28;20169;-48
2023/06/01 08:19:49;;;;;;;46.10;33.80;;;17.00;99.90;;;;;;5115917;28;20165;-49
2023/06/01 08:22:16;;;;;;;48.10;33.42;;;17.30;99.90;;;;;;5115415;28;20575;-48
2023/06/01 08:24:42;;;;;;;44.00;32.00;;;17.30;99.90;;;;;;5115419;28;20170;-48
2023/06/01 08:27:18;;;;;;;43.60;32.20;;;17.30;99.90;;;;;;5115317;28;20177;-47
2023/06/01 08:29:46;;;;;;;44.10;32.25;;;17.90;99.90;;;;;;5115266;28;20196;-50
2023/06/01 08:32:12;;;;;;;39.88;31.17;;;17.70;99.90;;;;;;5115178;28;20153;-48
2023/06/01 08:34:38;;;;;;;38.72;31.70;;;17.60;99.90;;;;;;5115282;28;20577;-49
2023/06/01 08:37:04;;;;;;;46.22;30.58;;;17.60;99.90;;;;;;5115115;28;20163;-48
2023/06/01 08:39:30;;;;;;;43.83;31.90;;;17.60;99.90;;;;;;5115045;28;20245;-48
2023/06/01 08:42:18;;;;;;;44.92;32.00;;;17.80;99.90;;;;;;5115333;28;20197;-48
2023/06/01 08:44:44;;;;;;;44.90;32.13;;;17.70;99.90;;;;;;5115111;28;20203;-50
2023/06/01 08:47:10;;;;;;;37.40;30.42;;;18.00;99.90;;;;;;5111509;28;20673;-49
2023/06/01 08:49:36;;;;;;;38.15;28.75;;;17.90;99.90;;;;;;5112857;28;20211;-48
2023/06/01 08:52:03;;;;;;;46.78;30.38;;;;;;;;;;5113106;28;20622;-48
2023/06/01 08:54:30;;;;;;;45.03;32.70;;;18.00;99.90;;;;;;5112983;28;20168;-47
2023/06/01 08:56:58;;;;;;;45.10;30.90;;;;;;;;;;5113576;28;20165;-48
2023/06/01 08:59:24;;;;;;;41.10;29.27;;;;;;;;;;5112733;28;20161;-48
2023/06/01 09:01:50;;;;;;;40.85;29.60;;;;;;;;;;5094828;28;20184;-49
2023/06/01 09:04:15;;;;;;;50.72;31.60;;;18.30;99.90;;;;;;5112364;28;20658;-49
2023/06/01 09:06:42;;;;;;;37.75;29.45;;;18.60;99.90;;;;;;5111809;28;20212;-49
2023/06/01 09:09:11;;;;;;;43.13;28.98;;;18.30;99.90;;;;;;5112544;28;20169;-48
2023/06/01 09:11:37;;;;;;;37.50;30.65;;;;;;;;;;5112706;28;20277;-48
2023/06/01 09:14:20;;;;;;;38.42;28.70;;;;;;;;;;5112693;28;20165;-48
2023/06/01 09:16:46;;;;;;;45.15;32.13;;;;;;;;;;5112817;28;20597;-50
2023/06/01 09:19:12;;;;;;;35.47;27.85;;;19.10;99.90;;;;;;5112334;28;20640;-48
2023/06/01 09:21:37;;;;;;;39.30;28.55;;;18.80;99.90;;;;;;5112435;28;20196;-49
2023/06/01 09:24:24;;;;;;;37.75;28.33;;;;;;;;;;5112308;28;20171;-50
2023/06/01 09:26:50;;;;;;;35.50;27.52;;;;;;;;;;5112856;28;20176;-49
2023/06/01 09:29:16;;;;;;;36.80;27.95;;;;;;;;;;5094007;28;20212;-50
2023/06/01 09:31:44;;;;;;;37.38;26.38;;;19.40;99.90;;;;;;5112101;28;20629;-51
2023/06/01 09:34:11;;;;;;;37.83;27.55;;;;;;;;;;5112497;28;20176;-51
2023/06/01 09:36:37;;;;;;;34.83;24.75;;;19.50;99.90;;;;;;5112517;28;20272;-50
2023/06/01 09:39:11;;;;;;;34.72;25.52;;;19.50;99.90;;;;;;5112132;28;20491;-49
2023/06/01 09:41:47;;;;;;;34.80;25.10;;;19.70;99.90;;;;;;5111878;28;20173;-50
2023/06/01 09:44:14;;;;;;;32.58;25.42;;;;;;;;;;5111970;28;20164;-50
2023/06/01 09:46:49;;;;;;;34.05;25.13;;;;;;;;;;5112114;28;20164;-50
2023/06/01 09:49:20;;;;;;;35.28;23.98;;;;;;;;;;5112229;28;20223;-49
2023/06/01 09:51:46;;;;;;;31.95;23.55;;;20.00;99.90;;;;;;5111784;28;20184;-50
2023/06/01 09:54:21;;;;;;;33.03;24.60;;;;;;;;;;5111989;28;20620;-49
2023/06/01 09:56:48;;;;;;;27.40;21.63;;;20.30;99.90;;;;;;5112120;28;20175;-49
2023/06/01 09:59:14;;;;;;;31.23;22.17;;;20.30;99.90;;;;;;5111779;28;20201;-50
2023/06/01 10:01:41;;;;;;;29.98;23.90;;;;;;;;;;5111516;28;20165;-51
2023/06/01 10:04:07;;;;;;;31.50;21.17;;;;;;;;;;5111631;28;20219;-50
2023/06/01 10:06:38;;;;;;;33.80;22.48;;;20.10;99.90;;;;;;5111642;28;20216;-50
2023/06/01 10:09:12;;;;;;;29.42;20.98;;;20.40;99.90;;;;;;5111472;28;20613;-51
2023/06/01 10:11:38;;;;;;;28.88;18.63;;;;;;;;;;5111455;28;20172;-49
2023/06/01 10:14:04;;;;;;;26.48;18.13;;;20.30;99.90;;;;;;5111687;28;20161;-50
2023/06/01 10:16:30;;;;;;;24.98;17.40;;;20.20;99.90;;;;;;5111294;28;20264;-49
2023/06/01 10:18:57;;;;;;;28.67;17.90;;;20.60;99.90;;;;;;5111194;28;20702;-50
2023/06/01 10:21:23;;;;;;;21.38;14.45;;;20.50;99.90;;;;;;5111181;28;20175;-49
2023/06/01 10:23:50;;;;;;;24.20;17.23;;;;;;;;;;5111420;28;20171;-50
2023/06/01 10:26:17;;;;;;;24.30;17.27;;;20.80;99.90;;;;;;5111216;28;20625;-49
2023/06/01 10:28:46;;;;;;;26.58;17.35;;;;;;;;;;5111239;28;20684;-50
2023/06/01 10:31:37;;;;;;;21.58;16.42;;;21.10;99.90;;;;;;5111448;28;20306;-49
2023/06/01 10:34:04;;;;;;;23.70;16.08;;;;;;;;;;5110934;28;20172;-49
2023/06/01 10:36:49;;;;;;;23.10;15.98;;;;;;;;;;5111110;28;20256;-49
2023/06/01 10:39:33;;;;;;;21.30;15.70;;;21.10;99.90;;;;;;5111167;28;20161;-50
2023/06/01 10:42:19;;;;;;;20.63;13.98;;;;;;;;;;5111133;28;20176;-49
2023/06/01 10:44:45;;;;;;;24.77;14.80;;;21.00;99.90;;;;;;5109915;28;20159;-49
2023/06/01 10:47:11;;;;;;;24.05;15.05;;;20.80;99.90;;;;;;5110991;28;20196;-49
2023/06/01 10:49:46;;;;;;;26.70;15.00;;;;;;;;;;5110701;28;20670;-49
2023/06/01 10:52:28;;;;;;;19.52;14.57;;;21.50;99.90;;;;;;5110738;28;20168;-49
2023/06/01 10:55:15;;;;;;;23.60;15.02;;;21.30;99.90;;;;;;5110102;28;20164;-50
2023/06/01 10:57:43;;;;;;;20.58;13.68;;;21.20;99.90;;;;;;5110553;28;20208;-49
2023/06/01 11:00:15;;;;;;;18.63;11.98;;;;;;;;;;5110394;28;20171;-50
2023/06/01 11:02:48;;;;;;;17.33;12.63;;;21.40;99.90;;;;;;5110493;28;20640;-50
2023/06/01 11:05:47;;;;;;;17.58;9.98;;;21.30;99.90;;;;;;5110746;28;20263;-50
2023/06/01 11:08:19;;;;;;;18.10;11.90;;;21.60;99.90;;;;;;5092154;28;20315;-50
2023/06/01 11:10:58;;;;;;;19.17;11.70;;;21.70;99.90;;;;;;5110977;28;20239;-50
2023/06/01 11:13:29;;;;;;;24.38;11.18;;;21.90;99.90;;;;;;5110361;28;20176;-50
2023/06/01 11:16:03;;;;;;;19.50;11.95;;;21.90;99.90;;;;;;5110396;28;20160;-49
2023/06/01 11:19:00;;;;;;;19.65;12.43;;;22.00;99.90;;;;;;5110501;28;20228;-49
2023/06/01 11:21:43;;;;;;;19.65;10.18;;;22.10;99.90;;;;;;5110302;28;20161;-49
2023/06/01 11:24:13;;;;;;;17.02;10.60;;;;;;;;;;5110431;28;20213;-49
2023/06/01 11:26:42;;;;;;;19.98;11.15;;;;;;;;;;5110405;28;20532;-49
2023/06/01 11:29:10;;;;;;;15.93;10.77;;;;;;;;;;5109345;28;20187;-49
2023/06/01 11:31:37;;;;;;;15.63;10.90;;;;;;;;;;5110448;28;20180;-48
2023/06/01 11:34:03;;;;;;;17.58;10.40;;;22.50;99.90;;;;;;5109044;28;20168;-49
2023/06/01 11:36:36;;;;;;;18.85;10.27;;;22.10;99.90;;;;;;5110267;28;20175;-49
2023/06/01 11:39:02;;;;;;;17.95;10.82;;;;;;;;;;5109519;28;20225;-48
2023/06/01 11:41:28;;;;;;;15.65;10.43;;;22.20;99.90;;;;;;5110043;28;20164;-48
2023/06/01 11:43:58;;;;;;;18.83;10.10;;;;;;;;;;5109837;28;20681;-48
2023/06/01 11:46:26;;;;;;;19.65;9.88;;;22.60;99.90;;;;;;5110106;28;20247;-50
2023/06/01 11:49:06;;;;;;;18.55;10.45;;;;;;;;;;5110181;28;20161;-49
2023/06/01 11:51:33;;;;;;;20.15;11.50;;;;;;;;;;5109502;28;20177;-48
2023/06/01 11:54:03;;;;;;;15.70;9.88;;;22.90;99.90;;;;;;5109966;28;20183;-49
2023/06/01 11:56:32;;;;;;;15.60;8.85;;;22.90;99.90;;;;;;5109718;28;20186;-49
2023/06/01 11:59:08;;;;;;;21.38;9.80;;;22.40;99.90;;;;;;5110111;28;20168;-49
2023/06/01 12:01:34;;;;;;;12.45;8.88;;;22.70;99.90;;;;;;5109985;28;20176;-49
2023/06/01 12:04:02;;;;;;;13.35;9.10;;;;;;;;;;5109974;28;20172;-48
2023/06/01 12:06:28;;;;;;;15.80;9.00;;;;;;;;;;5109301;28;20729;-49
2023/06/01 12:08:57;;;;;;;14.98;10.10;;;22.80;99.20;;;;;;5109723;28;20165;-49
2023/06/01 12:11:27;;;;;;;15.52;8.80;;;22.90;99.70;;;;;;5109539;28;20199;-48
2023/06/01 12:13:56;;;;;;;19.77;9.95;;;;;;;;;;5109709;28;20164;-49
2023/06/01 12:16:22;;;;;;;15.80;9.05;;;22.90;98.30;;;;;;5109548;28;20173;-49
2023/06/01 12:18:49;;;;;;;16.23;8.85;;;;;;;;;;5109809;28;20169;-49
2023/06/01 12:21:16;;;;;;;11.40;8.27;;;23.10;99.90;;;;;;5108969;28;20557;-48
2023/06/01 12:23:42;;;;;;;17.15;9.90;;;;;;;;;;5109605;28;20161;-48
2023/06/01 12:26:08;;;;;;;16.35;9.77;;;23.10;99.10;;;;;;5109618;28;20619;-48
2023/06/01 12:28:52;;;;;;;12.65;8.85;;;;;;;;;;5109865;28;20202;-49
2023/06/01 12:31:18;;;;;;;15.15;8.98;;;;;;;;;;5110088;28;20204;-48
2023/06/01 12:33:45;;;;;;;16.45;10.40;;;;;;;;;;5109554;28;20168;-49
2023/06/01 12:36:12;;;;;;;16.35;9.02;;;;;;;;;;5100284;28;20611;-48
2023/06/01 12:38:50;;;;;;;12.98;8.63;;;23.00;97.90;;;;;;5089386;28;20204;-48
2023/06/01 12:41:18;;;;;;;16.77;9.30;;;22.90;98.00;;;;;;5092834;28;20161;-48
2023/06/01 12:43:48;;;;;;;19.90;9.45;;;;;;;;;;5093012;28;20256;-51
2023/06/01 12:46:27;;;;;;;16.70;8.93;;;23.20;98.10;;;;;;5092789;28;20644;-50
2023/06/01 12:49:20;;;;;;;16.30;9.20;;;23.00;96.00;;;;;;5092802;28;20184;-48
2023/06/01 12:51:46;;;;;;;18.00;8.68;;;;;;;;;;5080613;28;20217;-51
2023/06/01 12:54:12;;;;;;;12.85;7.88;;;;;;;;;;5092644;28;20173;-49
2023/06/01 12:56:38;;;;;;;16.10;8.30;;;;;;;;;;5091897;28;20629;-49
2023/06/01 12:59:04;;;;;;;12.23;7.88;;;23.20;95.10;;;;;;5081939;28;20635;-47
2023/06/01 13:01:30;;;;;;;15.88;8.52;;;23.50;95.40;;;;;;5092502;28;20255;-51
2023/06/01 13:03:56;;;;;;;23.25;9.52;;;;;;;;;;5092318;28;20594;-48